LGW – EGKK – Gatwick

Gatwick, north terminal, Starbucks, naplemente, valami buzinagy szendvics, wifi 4.95font/oraert, cappuccino, ablakon tul leszallopalya, folyamatos queueing lefele, “economy business fucker”.

17:59 < wigyori> vazeg
17:59 < wigyori> ulok at az ablakhoz, idejott egy csaj h ‘azok, azok nem mukodnek’
17:59 < wigyori> mondom mi
17:59 < wigyori> ‘azok, a konnektorok lent’
17:59 < wigyori> latta h notival koltozkodok at
17:59 < wigyori> aztan aszitte h azert

most akkor ezt kepzeld el Ferihegyen. Nem megy, mi?

BTW a north terminal departure resze akkora mint ket westend, valoszinuleg csak par utas fordul itt meg evente, azert is all itt ket tucat 747/757/767, meg ugy altalaban a kisebb vasakbol nehany.

Fasza ‘Land of Whisky’ bo’t is van lent, le is fogok setalni valami nedut hazavinni…

METAR: EGKK 311650Z 01005KT 9999 FEW035 06/02 Q1007

Leave a Reply